createdAt,value
2016-05-29T00:00:51.670Z,17.2
2016-05-29T00:01:51.548Z,17.11
2016-05-29T00:02:51.737Z,17.09
2016-05-29T00:03:51.787Z,17.14
2016-05-29T00:04:51.821Z,17.05
2016-05-29T00:05:52.527Z,17.2
2016-05-29T00:06:51.904Z,17.15
2016-05-29T00:07:51.923Z,17.14
2016-05-29T00:08:51.988Z,17.22
2016-05-29T00:09:52.022Z,17.26
2016-05-29T00:10:51.900Z,17.16
2016-05-29T00:11:52.089Z,17.15
2016-05-29T00:12:52.124Z,17.15
2016-05-29T00:13:52.158Z,17.16
2016-05-29T00:14:52.191Z,17.14
2016-05-29T00:15:52.241Z,17.22
2016-05-29T00:16:52.275Z,17.14
2016-05-29T00:17:52.309Z,17.12
2016-05-29T00:18:52.344Z,17.05
2016-05-29T00:19:52.392Z,17.05
2016-05-29T00:20:53.270Z,17.08
2016-05-29T00:21:52.461Z,17.11
2016-05-29T00:22:52.338Z,17.04
2016-05-29T00:23:52.528Z,17.02
2016-05-29T00:24:52.578Z,16.94
2016-05-29T00:25:52.596Z,17.01
2016-05-29T00:26:52.630Z,17.06
2016-05-29T00:27:52.679Z,17.06
2016-05-29T00:28:52.713Z,17.19
2016-05-29T00:29:52.748Z,17.19
2016-05-29T00:30:52.641Z,17.16
2016-05-29T00:31:52.674Z,17.19
2016-05-29T00:32:52.865Z,17.12
2016-05-29T00:33:52.899Z,17.05
2016-05-29T00:34:52.965Z,17.09
2016-05-29T00:35:52.967Z,17.09
2016-05-29T00:36:53.001Z,17.04
2016-05-29T00:37:53.050Z,17.11
2016-05-29T00:38:53.115Z,17.09
2016-05-29T00:39:53.134Z,17.08
2016-05-29T00:40:53.168Z,17.14
2016-05-29T00:41:53.217Z,17.06
2016-05-29T00:42:53.079Z,17.05
2016-05-29T00:43:53.286Z,17.15
2016-05-29T00:44:53.319Z,17.04
2016-05-29T00:45:53.353Z,17.09
2016-05-29T00:46:53.387Z,17.08
2016-05-29T00:47:53.421Z,17.05
2016-05-29T00:48:53.455Z,17.14
2016-05-29T00:49:53.489Z,17.2
2016-05-29T00:50:53.382Z,17.14
2016-05-29T00:51:53.573Z,17.16
2016-05-29T00:52:53.591Z,17.19
2016-05-29T00:53:53.484Z,17.14
2016-05-29T00:54:53.674Z,17.2
2016-05-29T00:55:53.708Z,17.15
2016-05-29T00:56:53.741Z,17.09
2016-05-29T00:57:53.808Z,17.15
2016-05-29T00:58:53.841Z,17.15
2016-05-29T00:59:53.859Z,17.05
2016-05-29T01:00:53.910Z,17.05
2016-05-29T01:01:53.943Z,17.04
2016-05-29T01:02:53.993Z,16.97
2016-05-29T01:03:54.010Z,17.01
2016-05-29T01:04:54.060Z,17.08
2016-05-29T01:05:53.938Z,17.04
2016-05-29T01:06:54.129Z,17.14
2016-05-29T01:07:54.162Z,17.09
2016-05-29T01:08:54.196Z,17.02
2016-05-29T01:09:54.073Z,17.01
2016-05-29T01:10:54.264Z,16.99
2016-05-29T01:11:54.298Z,16.96
2016-05-29T01:12:54.347Z,16.93
2016-05-29T01:13:54.381Z,16.86
2016-05-29T01:14:54.415Z,16.72
2016-05-29T01:15:54.293Z,16.69
2016-05-29T01:16:54.483Z,16.72
2016-05-29T01:17:54.517Z,16.64
2016-05-29T01:18:54.583Z,16.56
2016-05-29T01:19:54.600Z,16.61
2016-05-29T01:20:55.322Z,16.6
2016-05-29T01:21:54.669Z,16.61
2016-05-29T01:22:54.718Z,16.61
2016-05-29T01:23:54.752Z,16.65
2016-05-29T01:24:54.786Z,16.54
2016-05-29T01:25:54.820Z,16.65
2016-05-29T01:26:54.854Z,16.51
2016-05-29T01:27:54.904Z,16.51
2016-05-29T01:28:54.938Z,16.58
2016-05-29T01:29:54.816Z,16.65
2016-05-29T01:30:55.005Z,16.51
2016-05-29T01:31:55.040Z,16.57
2016-05-29T01:32:55.089Z,16.5
2016-05-29T01:33:55.123Z,16.5
2016-05-29T01:34:55.001Z,16.53
2016-05-29T01:35:55.519Z,16.56
2016-05-29T01:36:55.224Z,16.51
2016-05-29T01:37:55.259Z,16.53
2016-05-29T01:38:54.980Z,16.57
2016-05-29T01:39:55.326Z,16.5
2016-05-29T01:40:55.204Z,16.46
2016-05-29T01:41:55.410Z,16.56
2016-05-29T01:42:55.303Z,16.56
2016-05-29T01:43:55.493Z,16.53
2016-05-29T01:44:55.512Z,16.56
2016-05-29T01:45:55.562Z,16.54
2016-05-29T01:46:55.580Z,16.43
2016-05-29T01:47:55.661Z,16.43
2016-05-29T01:48:55.678Z,16.54
2016-05-29T01:49:55.697Z,16.53
2016-05-29T01:50:55.966Z,16.51
2016-05-29T01:51:55.764Z,16.43
2016-05-29T01:52:55.877Z,16.49
2016-05-29T01:53:55.849Z,16.54
2016-05-29T01:54:55.882Z,16.58
2016-05-29T01:55:55.916Z,16.53
2016-05-29T01:56:55.950Z,16.66
2016-05-29T01:57:55.999Z,16.53
2016-05-29T01:58:56.034Z,16.57
2016-05-29T01:59:56.068Z,16.57
2016-05-29T02:00:56.102Z,16.51
2016-05-29T02:01:56.135Z,16.58
2016-05-29T02:02:56.169Z,16.43
2016-05-29T02:03:56.219Z,16.47
2016-05-29T02:04:56.097Z,16.54
2016-05-29T02:05:56.132Z,16.56
2016-05-29T02:06:56.320Z,16.6
2016-05-29T02:07:56.355Z,16.6
2016-05-29T02:08:56.390Z,16.38
2016-05-29T02:09:56.423Z,16.39
2016-05-29T02:10:56.456Z,16.43
2016-05-29T02:11:56.507Z,16.35
2016-05-29T02:12:56.540Z,16.35
2016-05-29T02:13:56.418Z,16.33
2016-05-29T02:14:56.592Z,16.32
2016-05-29T02:15:56.642Z,16.35
2016-05-29T02:16:56.520Z,16.23
2016-05-29T02:17:56.726Z,16.23
2016-05-29T02:18:56.759Z,16.23
2016-05-29T02:19:56.778Z,16.17
2016-05-29T02:20:56.514Z,16.09
2016-05-29T02:21:56.705Z,16.1
2016-05-29T02:22:56.739Z,16.13
2016-05-29T02:23:56.929Z,16.12
2016-05-29T02:24:56.963Z,16.01
2016-05-29T02:25:56.997Z,16.13
2016-05-29T02:26:57.031Z,16.1
2016-05-29T02:27:56.924Z,16.13
2016-05-29T02:28:57.114Z,16.17
2016-05-29T02:29:57.149Z,16.12
2016-05-29T02:30:57.182Z,16.05
2016-05-29T02:31:57.216Z,15.97
2016-05-29T02:32:57.094Z,16.02
2016-05-29T02:33:57.285Z,16.02
2016-05-29T02:34:57.162Z,16
2016-05-29T02:35:57.524Z,15.97
2016-05-29T02:36:57.385Z,15.94
2016-05-29T02:37:57.279Z,15.97
2016-05-29T02:38:57.470Z,15.97
2016-05-29T02:39:57.503Z,15.98
2016-05-29T02:40:57.538Z,16.02
2016-05-29T02:41:57.415Z,15.88
2016-05-29T02:42:57.621Z,15.88
2016-05-29T02:43:57.639Z,15.94
2016-05-29T02:44:57.532Z,15.83
2016-05-29T02:45:57.739Z,15.9
2016-05-29T02:46:57.756Z,15.8
2016-05-29T02:47:57.807Z,15.95
2016-05-29T02:48:57.825Z,15.84
2016-05-29T02:49:57.859Z,15.9
2016-05-29T02:50:58.158Z,15.83
2016-05-29T02:51:57.957Z,15.92
2016-05-29T02:52:57.992Z,15.92
2016-05-29T02:53:57.853Z,15.9
2016-05-29T02:54:58.044Z,15.92
2016-05-29T02:55:58.077Z,15.91
2016-05-29T02:56:58.128Z,15.84
2016-05-29T02:57:58.005Z,15.83
2016-05-29T02:58:58.194Z,15.88
2016-05-29T02:59:58.230Z,15.77
2016-05-29T03:00:58.263Z,15.84
2016-05-29T03:01:58.297Z,15.91
2016-05-29T03:02:58.330Z,15.88
2016-05-29T03:03:58.365Z,15.9
2016-05-29T03:04:58.415Z,15.76
2016-05-29T03:05:58.729Z,15.91
2016-05-29T03:06:58.498Z,15.92
2016-05-29T03:07:58.516Z,15.95
2016-05-29T03:08:58.394Z,15.86
2016-05-29T03:09:58.584Z,16
2016-05-29T03:10:58.634Z,15.97
2016-05-29T03:11:58.668Z,16.01
2016-05-29T03:12:58.701Z,15.94
2016-05-29T03:13:58.751Z,15.97
2016-05-29T03:14:58.613Z,16.04
2016-05-29T03:15:58.804Z,16.01
2016-05-29T03:16:58.868Z,15.97
2016-05-29T03:17:58.870Z,15.97
2016-05-29T03:18:58.920Z,16
2016-05-29T03:19:58.955Z,16
2016-05-29T03:20:59.004Z,16.08
2016-05-29T03:21:58.866Z,16.02
2016-05-29T03:22:58.901Z,16.05
2016-05-29T03:23:59.091Z,15.95
2016-05-29T03:24:59.186Z,15.98
2016-05-29T03:25:59.190Z,16.05
2016-05-29T03:26:59.208Z,16.08
2016-05-29T03:27:59.242Z,16.05
2016-05-29T03:28:59.275Z,16.01
2016-05-29T03:29:59.310Z,16.04
2016-05-29T03:30:59.360Z,16.05
2016-05-29T03:31:59.393Z,16.09
2016-05-29T03:32:59.411Z,15.94
2016-05-29T03:33:59.461Z,15.94
2016-05-29T03:34:59.495Z,16.01
2016-05-29T03:35:59.591Z,15.98
2016-05-29T03:36:59.563Z,16.09
2016-05-29T03:37:59.613Z,15.95
2016-05-29T03:38:59.646Z,15.94
2016-05-29T03:39:59.680Z,16
2016-05-29T03:40:59.730Z,16.05
2016-05-29T03:41:59.748Z,15.97
2016-05-29T03:42:59.626Z,15.98
2016-05-29T03:43:59.660Z,15.98
2016-05-29T03:44:59.850Z,15.97
2016-05-29T03:45:59.900Z,16.04
2016-05-29T03:46:59.918Z,16.04
2016-05-29T03:47:59.967Z,16.01
2016-05-29T03:49:00.001Z,16.01
2016-05-29T03:49:59.879Z,16.05
2016-05-29T03:51:01.070Z,15.91
2016-05-29T03:52:00.103Z,16.01
2016-05-29T03:53:00.137Z,16.01
2016-05-29T03:54:00.187Z,15.97
2016-05-29T03:55:00.205Z,15.98
2016-05-29T03:56:00.255Z,16
2016-05-29T03:57:00.305Z,16
2016-05-29T03:58:00.166Z,16.08
2016-05-29T03:59:00.356Z,16.08
2016-05-29T04:00:00.390Z,16.09
2016-05-29T04:01:00.425Z,16.02
2016-05-29T04:02:00.318Z,16.08
2016-05-29T04:03:00.507Z,16.05
2016-05-29T04:04:00.542Z,16.15
2016-05-29T04:05:00.577Z,16.09
2016-05-29T04:06:00.625Z,16.16
2016-05-29T04:07:00.659Z,16.16
2016-05-29T04:08:00.678Z,16.17
2016-05-29T04:09:00.712Z,16.1
2016-05-29T04:10:00.604Z,16.1
2016-05-29T04:11:00.795Z,16.09
2016-05-29T04:12:00.829Z,16.12
2016-05-29T04:13:00.863Z,16.09
2016-05-29T04:14:00.740Z,16.04
2016-05-29T04:15:00.962Z,16.12
2016-05-29T04:16:00.981Z,16.17
2016-05-29T04:17:01.014Z,16.17
2016-05-29T04:18:01.048Z,16.1
2016-05-29T04:19:01.082Z,16.13
2016-05-29T04:20:01.148Z,16.17
2016-05-29T04:21:01.009Z,16.15
2016-05-29T04:22:01.200Z,16.12
2016-05-29T04:23:01.218Z,16.12
2016-05-29T04:24:01.111Z,16.13
2016-05-29T04:25:01.301Z,16.15
2016-05-29T04:26:01.178Z,16.24
2016-05-29T04:27:01.214Z,16.2
2016-05-29T04:28:01.403Z,16.21
2016-05-29T04:29:01.436Z,16.23
2016-05-29T04:30:01.314Z,16.24
2016-05-29T04:31:01.505Z,16.2
2016-05-29T04:32:01.539Z,16.24
2016-05-29T04:33:01.588Z,16.23
2016-05-29T04:34:01.608Z,16.21
2016-05-29T04:35:01.657Z,16.23
2016-05-29T04:36:01.706Z,16.26
2016-05-29T04:37:01.724Z,16.16
2016-05-29T04:38:01.601Z,16.21
2016-05-29T04:39:01.808Z,16.23
2016-05-29T04:40:01.826Z,16.15
2016-05-29T04:41:01.891Z,16.24
2016-05-29T04:42:01.925Z,16.16
2016-05-29T04:43:01.804Z,16.12
2016-05-29T04:44:01.977Z,16.12
2016-05-29T04:45:02.011Z,16.23
2016-05-29T04:46:02.062Z,16.16
2016-05-29T04:47:01.939Z,16.31
2016-05-29T04:48:02.129Z,16.28
2016-05-29T04:49:02.163Z,16.21
2016-05-29T04:50:02.197Z,16.21
2016-05-29T04:51:02.200Z,16.21
2016-05-29T04:52:02.280Z,16.21
2016-05-29T04:53:02.158Z,16.17
2016-05-29T04:54:02.333Z,16.26
2016-05-29T04:55:02.382Z,16.2
2016-05-29T04:56:02.416Z,16.15
2016-05-29T04:57:02.450Z,16.1
2016-05-29T04:58:02.484Z,16.05
2016-05-29T04:59:02.361Z,16.09
2016-05-29T05:00:02.567Z,16.05
2016-05-29T05:01:02.602Z,16.01
2016-05-29T05:02:02.480Z,16.09
2016-05-29T05:03:02.669Z,16.21
2016-05-29T05:04:02.719Z,16.1
2016-05-29T05:05:02.752Z,16.12
2016-05-29T05:06:02.755Z,16.01
2016-05-29T05:07:02.805Z,16.01
2016-05-29T05:08:02.838Z,16.01
2016-05-29T05:09:02.889Z,16.05
2016-05-29T05:10:02.766Z,16.15
2016-05-29T05:11:02.800Z,16.09
2016-05-29T05:12:02.990Z,16.04
2016-05-29T05:13:03.024Z,16.13
2016-05-29T05:14:02.902Z,16.1
2016-05-29T05:15:03.092Z,16.1
2016-05-29T05:16:03.143Z,16.13
2016-05-29T05:17:03.176Z,16.13
2016-05-29T05:18:03.194Z,16.1
2016-05-29T05:19:03.259Z,16.1
2016-05-29T05:20:03.277Z,16.2
2016-05-29T05:21:03.171Z,16.23
2016-05-29T05:22:03.345Z,16.23
2016-05-29T05:23:03.239Z,16.31
2016-05-29T05:24:03.428Z,16.26
2016-05-29T05:25:03.463Z,16.1
2016-05-29T05:26:03.481Z,16.17
2016-05-29T05:27:03.530Z,16.17
2016-05-29T05:28:03.409Z,16.2
2016-05-29T05:29:03.598Z,16.2
2016-05-29T05:30:03.633Z,16.24
2016-05-29T05:31:03.682Z,16.17
2016-05-29T05:32:03.560Z,16.23
2016-05-29T05:33:03.734Z,16.29
2016-05-29T05:34:03.783Z,16.32
2016-05-29T05:35:03.818Z,16.33
2016-05-29T05:36:04.602Z,16.28
2016-05-29T05:37:03.902Z,16.26
2016-05-29T05:38:03.779Z,16.26
2016-05-29T05:39:03.954Z,16.26
2016-05-29T05:40:04.003Z,16.2
2016-05-29T05:41:04.037Z,16.2
2016-05-29T05:42:03.915Z,16.32
2016-05-29T05:43:04.104Z,16.23
2016-05-29T05:44:04.138Z,16.31
2016-05-29T05:45:04.173Z,16.32
2016-05-29T05:46:04.207Z,16.32
2016-05-29T05:47:04.084Z,16.35
2016-05-29T05:48:04.290Z,16.31
2016-05-29T05:49:04.324Z,16.32
2016-05-29T05:50:04.358Z,16.32
2016-05-29T05:51:05.518Z,16.24
2016-05-29T05:52:04.426Z,16.24
2016-05-29T05:53:04.303Z,16.2
2016-05-29T05:54:04.510Z,16.26
2016-05-29T05:55:04.372Z,16.23
2016-05-29T05:56:04.577Z,16.23
2016-05-29T05:57:04.595Z,16.26
2016-05-29T05:58:04.645Z,16.23
2016-05-29T05:59:04.679Z,16.17
2016-05-29T06:00:04.713Z,16.26
2016-05-29T06:01:04.591Z,16.26
2016-05-29T06:02:04.811Z,16.21
2016-05-29T06:03:04.815Z,16.17
2016-05-29T06:04:04.864Z,16.21
2016-05-29T06:05:04.914Z,16.31
2016-05-29T06:06:04.932Z,16.46
2016-05-29T06:07:04.967Z,16.5
2016-05-29T06:08:05.000Z,16.42
2016-05-29T06:09:05.034Z,16.42
2016-05-29T06:10:05.099Z,16.47
2016-05-29T06:11:05.102Z,16.54
2016-05-29T06:12:04.980Z,16.43
2016-05-29T06:13:05.185Z,16.41
2016-05-29T06:14:05.219Z,16.57
2016-05-29T06:15:05.269Z,16.54
2016-05-29T06:16:05.131Z,16.61
2016-05-29T06:17:05.321Z,16.53
2016-05-29T06:18:05.371Z,16.64
2016-05-29T06:19:05.390Z,16.54
2016-05-29T06:20:05.439Z,16.58
2016-05-29T06:21:05.910Z,16.6
2016-05-29T06:22:05.506Z,16.66
2016-05-29T06:23:05.556Z,16.61
2016-05-29T06:24:05.575Z,16.5
2016-05-29T06:25:05.467Z,16.58
2016-05-29T06:26:05.501Z,16.61
2016-05-29T06:27:05.692Z,16.57
2016-05-29T06:28:05.726Z,16.53
2016-05-29T06:29:05.759Z,16.58
2016-05-29T06:30:05.794Z,16.68
2016-05-29T06:31:05.844Z,16.74
2016-05-29T06:32:05.862Z,16.76
2016-05-29T06:33:05.911Z,16.75
2016-05-29T06:34:05.788Z,16.72
2016-05-29T06:35:05.980Z,16.78
2016-05-29T06:36:05.857Z,16.78
2016-05-29T06:37:05.906Z,16.79
2016-05-29T06:38:05.783Z,16.93
2016-05-29T06:39:06.131Z,16.97
2016-05-29T06:40:06.164Z,16.93
2016-05-29T06:41:06.057Z,16.91
2016-05-29T06:42:06.233Z,16.94
2016-05-29T06:43:06.282Z,16.96
2016-05-29T06:44:06.315Z,16.79
2016-05-29T06:45:06.349Z,16.79
2016-05-29T06:46:06.385Z,16.78
2016-05-29T06:47:06.418Z,16.87
2016-05-29T06:48:06.467Z,16.86
2016-05-29T06:49:06.501Z,16.76
2016-05-29T06:50:06.534Z,16.86
2016-05-29T06:51:06.991Z,16.91
2016-05-29T06:52:06.603Z,16.79
2016-05-29T06:53:06.637Z,16.86
2016-05-29T06:54:06.671Z,16.87
2016-05-29T06:55:06.721Z,16.81
2016-05-29T06:56:06.739Z,16.78
2016-05-29T06:57:06.788Z,16.75
2016-05-29T06:58:06.823Z,16.81
2016-05-29T06:59:06.856Z,16.86
2016-05-29T07:00:06.890Z,16.94
2016-05-29T07:01:06.924Z,16.9
2016-05-29T07:02:06.989Z,16.75
2016-05-29T07:03:07.008Z,16.71
2016-05-29T07:04:07.041Z,16.78
2016-05-29T07:05:07.075Z,16.75
2016-05-29T07:06:07.453Z,16.72
2016-05-29T07:07:07.159Z,16.69
2016-05-29T07:08:07.193Z,16.72
2016-05-29T07:09:07.227Z,16.78
2016-05-29T07:10:07.261Z,16.79
2016-05-29T07:11:07.310Z,16.79
2016-05-29T07:12:07.172Z,16.86
2016-05-29T07:13:07.378Z,16.9
2016-05-29T07:14:07.412Z,16.94
2016-05-29T07:15:07.446Z,17.16
2016-05-29T07:16:07.324Z,16.96
2016-05-29T07:17:07.513Z,16.9
2016-05-29T07:18:07.548Z,16.89
2016-05-29T07:19:07.441Z,16.76
2016-05-29T07:20:07.460Z,16.83
2016-05-29T07:21:07.540Z,16.94
2016-05-29T07:22:07.699Z,16.91
2016-05-29T07:23:07.733Z,16.78
2016-05-29T07:24:07.611Z,16.81
2016-05-29T07:25:07.817Z,16.79
2016-05-29T07:26:07.851Z,16.93
2016-05-29T07:27:07.572Z,16.97
2016-05-29T07:28:07.918Z,16.94
2016-05-29T07:29:07.968Z,17.01
2016-05-29T07:30:07.986Z,17.01
2016-05-29T07:31:08.036Z,16.91
2016-05-29T07:32:07.914Z,16.97
2016-05-29T07:33:08.103Z,16.99
2016-05-29T07:34:08.139Z,17.02
2016-05-29T07:35:08.187Z,17.02
2016-05-29T07:36:08.550Z,17.08
2016-05-29T07:37:08.255Z,17.11
2016-05-29T07:38:08.116Z,16.96
2016-05-29T07:39:08.339Z,16.97
2016-05-29T07:40:08.357Z,16.93
2016-05-29T07:41:08.391Z,16.97
2016-05-29T07:42:08.424Z,16.96
2016-05-29T07:43:08.459Z,17.01
2016-05-29T07:44:08.524Z,17.12
2016-05-29T07:45:08.526Z,16.99
2016-05-29T07:46:08.577Z,17.01
2016-05-29T07:47:08.610Z,17.04
2016-05-29T07:48:08.488Z,17.16
2016-05-29T07:49:08.537Z,17.14
2016-05-29T07:50:08.712Z,17.16
2016-05-29T07:51:08.715Z,17.19
2016-05-29T07:52:08.795Z,17.14
2016-05-29T07:53:08.829Z,17.23
2016-05-29T07:54:08.879Z,17.33
2016-05-29T07:55:08.913Z,17.3
2016-05-29T07:56:08.947Z,17.26
2016-05-29T07:57:08.668Z,17.2
2016-05-29T07:58:09.015Z,17.15
2016-05-29T07:59:09.048Z,17.27
2016-05-29T08:00:09.098Z,17.29
2016-05-29T08:01:09.132Z,17.06
2016-05-29T08:02:09.167Z,16.9
2016-05-29T08:03:09.200Z,16.9
2016-05-29T08:04:09.233Z,16.9
2016-05-29T08:05:09.267Z,16.76
2016-05-29T08:06:10.552Z,16.78
2016-05-29T08:07:09.211Z,16.71
2016-05-29T08:08:09.385Z,16.74
2016-05-29T08:09:09.419Z,16.68
2016-05-29T08:10:09.469Z,16.69
2016-05-29T08:11:09.488Z,16.58
2016-05-29T08:12:09.365Z,16.66
2016-05-29T08:13:09.414Z,16.72
2016-05-29T08:14:09.604Z,16.68
2016-05-29T08:15:09.514Z,16.61
2016-05-29T08:16:09.672Z,16.66
2016-05-29T08:17:09.721Z,16.57
2016-05-29T08:18:09.757Z,16.6
2016-05-29T08:19:09.774Z,16.57
2016-05-29T08:20:09.652Z,16.57
2016-05-29T08:21:09.701Z,16.6
2016-05-29T08:22:09.908Z,16.56
2016-05-29T08:23:09.941Z,16.58
2016-05-29T08:24:09.960Z,16.57
2016-05-29T08:25:09.853Z,16.53
2016-05-29T08:26:10.028Z,16.6
2016-05-29T08:27:09.959Z,16.58
2016-05-29T08:28:10.156Z,16.72
2016-05-29T08:29:10.212Z,16.64
2016-05-29T08:30:10.267Z,16.75
2016-05-29T08:31:10.184Z,16.74
2016-05-29T08:32:10.366Z,16.72
2016-05-29T08:33:10.424Z,16.74
2016-05-29T08:34:10.466Z,16.72
2016-05-29T08:35:10.508Z,16.83
2016-05-29T08:36:10.566Z,16.84
2016-05-29T08:37:10.587Z,16.89
2016-05-29T08:38:10.624Z,16.96
2016-05-29T08:39:10.505Z,16.91
2016-05-29T08:40:10.714Z,16.89
2016-05-29T08:41:10.750Z,16.9
2016-05-29T08:42:10.645Z,16.94
2016-05-29T08:43:10.820Z,16.97
2016-05-29T08:44:10.871Z,16.99
2016-05-29T08:45:10.905Z,16.91
2016-05-29T08:46:10.939Z,16.96
2016-05-29T08:47:10.973Z,17.01
2016-05-29T08:48:11.009Z,16.99
2016-05-29T08:49:11.058Z,17.02
2016-05-29T08:50:10.921Z,16.96
2016-05-29T08:51:11.111Z,16.99
2016-05-29T08:52:11.161Z,17.04
2016-05-29T08:53:11.180Z,16.96
2016-05-29T08:54:11.230Z,17.02
2016-05-29T08:55:11.265Z,17.02
2016-05-29T08:56:11.314Z,17.16
2016-05-29T08:57:11.348Z,17.16
2016-05-29T08:58:11.789Z,17.29
2016-05-29T08:59:11.416Z,17.27
2016-05-29T09:00:11.450Z,17.33
2016-05-29T09:01:11.500Z,17.31
2016-05-29T09:02:11.534Z,17.42
2016-05-29T09:03:12.286Z,17.46
2016-05-29T09:04:11.601Z,17.52
2016-05-29T09:05:11.650Z,17.44
2016-05-29T09:06:11.575Z,17.64
2016-05-29T09:07:11.703Z,17.52
2016-05-29T09:08:11.831Z,17.39
2016-05-29T09:09:11.802Z,17.36
2016-05-29T09:10:11.664Z,17.46
2016-05-29T09:11:11.854Z,17.6
2016-05-29T09:12:11.889Z,17.78
2016-05-29T09:13:11.938Z,18
2016-05-29T09:14:11.988Z,18.22
2016-05-29T09:15:12.005Z,18.35
2016-05-29T09:16:11.883Z,18.26
2016-05-29T09:17:12.090Z,18.25
2016-05-29T09:18:17.279Z,18.58
2016-05-29T09:19:12.001Z,18.63
2016-05-29T09:20:12.191Z,18.66
2016-05-29T09:21:11.960Z,18.71
2016-05-29T09:22:12.274Z,18.86
2016-05-29T09:23:14.402Z,18.95
2016-05-29T09:24:12.343Z,19.14
2016-05-29T09:25:12.376Z,19.36
2016-05-29T09:26:12.442Z,19.19
2016-05-29T09:27:12.476Z,19.18
2016-05-29T09:28:15.181Z,19.07
2016-05-29T09:29:12.543Z,18.84
2016-05-29T09:30:12.578Z,18.75
2016-05-29T09:31:12.627Z,18.95
2016-05-29T09:32:12.505Z,18.84
2016-05-29T09:33:15.320Z,18.8
2016-05-29T09:34:12.745Z,18.95
2016-05-29T09:35:12.638Z,18.9
2016-05-29T09:36:12.672Z,18.9
2016-05-29T09:37:12.862Z,18.81
2016-05-29T09:38:12.911Z,18.8
2016-05-29T09:39:12.945Z,18.99
2016-05-29T09:40:12.979Z,19.07
2016-05-29T09:41:13.044Z,18.93
2016-05-29T09:42:13.078Z,18.95
2016-05-29T09:43:13.347Z,18.89
2016-05-29T09:44:13.130Z,18.83
2016-05-29T09:45:12.868Z,18.96
2016-05-29T09:46:13.214Z,18.89
2016-05-29T09:47:13.264Z,18.7
2016-05-29T09:48:13.141Z,18.75
2016-05-29T09:49:13.332Z,18.74
2016-05-29T09:50:13.069Z,18.74
2016-05-29T09:51:13.431Z,18.66
2016-05-29T09:52:13.293Z,18.59
2016-05-29T09:53:14.842Z,18.63
2016-05-29T09:54:13.377Z,18.6
2016-05-29T09:55:13.410Z,18.55
2016-05-29T09:56:13.601Z,18.56
2016-05-29T09:57:13.650Z,18.59
2016-05-29T09:58:13.684Z,18.62
2016-05-29T09:59:13.734Z,18.65
2016-05-29T10:00:13.767Z,18.6
2016-05-29T10:01:13.802Z,18.58
2016-05-29T10:02:13.695Z,18.6
2016-05-29T10:03:13.870Z,18.63
2016-05-29T10:04:13.919Z,18.56
2016-05-29T10:05:13.952Z,18.53
2016-05-29T10:06:14.237Z,18.55
2016-05-29T10:07:13.880Z,18.59
2016-05-29T10:08:14.070Z,18.56
2016-05-29T10:09:14.104Z,18.63
2016-05-29T10:10:21.045Z,18.59
2016-05-29T10:11:14.188Z,18.53
2016-05-29T10:12:14.238Z,18.5
2016-05-29T10:13:14.255Z,18.49
2016-05-29T10:14:14.352Z,18.6
2016-05-29T10:15:14.355Z,18.5
2016-05-29T10:16:14.388Z,18.37
2016-05-29T10:17:14.251Z,18.4
2016-05-29T10:18:14.299Z,18.35
2016-05-29T10:19:14.491Z,18.37
2016-05-29T10:20:14.540Z,18.29
2016-05-29T10:21:15.012Z,18.26
2016-05-29T10:22:14.623Z,18.23
2016-05-29T10:23:14.643Z,18.34
2016-05-29T10:24:14.676Z,18.33
2016-05-29T10:25:14.725Z,18.43
2016-05-29T10:26:14.776Z,18.49
2016-05-29T10:27:14.809Z,18.47
2016-05-29T10:28:14.827Z,18.53
2016-05-29T10:29:14.720Z,18.56
2016-05-29T10:30:14.911Z,18.62
2016-05-29T10:31:14.960Z,18.83
2016-05-29T10:32:14.994Z,18.68
2016-05-29T10:33:15.044Z,18.81
2016-05-29T10:34:15.062Z,18.92
2016-05-29T10:35:14.940Z,18.88
2016-05-29T10:36:15.286Z,18.88
2016-05-29T10:37:15.008Z,18.71
2016-05-29T10:38:15.072Z,18.66
2016-05-29T10:39:15.247Z,18.66
2016-05-29T10:40:15.297Z,18.53
2016-05-29T10:41:15.191Z,18.59
2016-05-29T10:42:15.380Z,18.66
2016-05-29T10:43:15.414Z,18.52
2016-05-29T10:44:15.449Z,18.53
2016-05-29T10:45:15.482Z,18.45
2016-05-29T10:46:15.532Z,18.52
2016-05-29T10:47:15.394Z,18.53
2016-05-29T10:48:15.444Z,18.5
2016-05-29T10:49:15.633Z,18.45
2016-05-29T10:50:15.527Z,18.47
2016-05-29T10:51:15.999Z,18.53
2016-05-29T10:52:15.751Z,18.43
2016-05-29T10:53:15.785Z,18.47
2016-05-29T10:54:15.819Z,18.41
2016-05-29T10:55:15.853Z,18.34
2016-05-29T10:56:15.746Z,18.35
2016-05-29T10:57:15.937Z,18.29
2016-05-29T10:58:15.970Z,18.31
2016-05-29T10:59:15.864Z,18.26
2016-05-29T11:00:15.898Z,18.18
2016-05-29T11:01:16.088Z,18.22
2016-05-29T11:02:16.122Z,18.22
2016-05-29T11:03:16.156Z,18.2
2016-05-29T11:04:16.206Z,18.2
2016-05-29T11:05:16.239Z,18.2
2016-05-29T11:06:16.164Z,18.29
2016-05-29T11:07:16.323Z,18.35
2016-05-29T11:08:16.356Z,18.38
2016-05-29T11:09:16.078Z,18.45
2016-05-29T11:10:16.425Z,18.59
2016-05-29T11:11:16.474Z,18.65
2016-05-29T11:12:16.492Z,18.65
2016-05-29T11:13:16.558Z,18.74
2016-05-29T11:14:16.591Z,18.73
2016-05-29T11:15:16.610Z,18.83
2016-05-29T11:16:17.174Z,18.95
2016-05-29T11:17:16.693Z,19.04
2016-05-29T11:18:16.743Z,18.92
2016-05-29T11:19:16.761Z,18.95
2016-05-29T11:20:16.810Z,18.83
2016-05-29T11:21:17.391Z,18.73
2016-05-29T11:22:16.879Z,18.73
2016-05-29T11:23:16.944Z,18.66
2016-05-29T11:24:16.962Z,18.52
2016-05-29T11:25:17.012Z,18.6
2016-05-29T11:26:17.029Z,18.55
2016-05-29T11:27:17.080Z,18.5
2016-05-29T11:28:17.113Z,18.33
2016-05-29T11:29:17.147Z,18.41
2016-05-29T11:30:17.182Z,18.34
2016-05-29T11:31:17.231Z,18.4
2016-05-29T11:32:17.249Z,18.23
2016-05-29T11:33:17.158Z,18.19
2016-05-29T11:34:17.333Z,18.18
2016-05-29T11:35:17.226Z,18.22
2016-05-29T11:36:17.417Z,18.29
2016-05-29T11:37:17.294Z,18.23
2016-05-29T11:38:17.500Z,18.22
2016-05-29T11:39:17.517Z,18.26
2016-05-29T11:40:17.568Z,18.22
2016-05-29T11:41:17.602Z,18.31
2016-05-29T11:42:17.636Z,18.28
2016-05-29T11:43:17.685Z,18.26
2016-05-29T11:44:17.703Z,18.28
2016-05-29T11:45:17.753Z,18.19
2016-05-29T11:46:17.786Z,18.19
2016-05-29T11:47:17.836Z,18.11
2016-05-29T11:48:17.855Z,18.03
2016-05-29T11:49:17.904Z,18.13
2016-05-29T11:50:17.938Z,18.13
2016-05-29T11:51:17.925Z,18.1
2016-05-29T11:52:17.849Z,18.11
2016-05-29T11:53:17.899Z,18.04
2016-05-29T11:54:18.090Z,18.11
2016-05-29T11:55:18.124Z,18.03
2016-05-29T11:56:18.001Z,18.05
2016-05-29T11:57:18.207Z,18.01
2016-05-29T11:58:18.241Z,17.95
2016-05-29T11:59:18.118Z,18.03
2016-05-29T12:00:18.168Z,18.07
2016-05-29T12:01:18.359Z,18.11
2016-05-29T12:02:18.392Z,18.1
2016-05-29T12:03:18.426Z,18.2
2016-05-29T12:04:18.460Z,18.18
2016-05-29T12:05:18.495Z,18.05
2016-05-29T12:06:18.559Z,18.07
2016-05-29T12:07:18.593Z,18.11
2016-05-29T12:08:18.612Z,18.04
2016-05-29T12:09:18.645Z,17.95
2016-05-29T12:10:18.523Z,18.11
2016-05-29T12:11:18.729Z,18.16
2016-05-29T12:12:18.763Z,18.01
2016-05-29T12:13:18.797Z,18.03
2016-05-29T12:14:18.831Z,18.05
2016-05-29T12:15:18.725Z,18.07
2016-05-29T12:16:18.914Z,18.1
2016-05-29T12:17:18.949Z,17.97
2016-05-29T12:18:18.982Z,17.95
2016-05-29T12:19:19.032Z,18.01
2016-05-29T12:20:19.066Z,18.03
2016-05-29T12:21:19.116Z,17.97
2016-05-29T12:22:18.977Z,18.04
2016-05-29T12:23:19.011Z,18.05
2016-05-29T12:24:19.201Z,17.95
2016-05-29T12:25:19.252Z,17.89
2016-05-29T12:26:19.129Z,17.89
2016-05-29T12:27:19.318Z,17.97
2016-05-29T12:28:19.368Z,17.98
2016-05-29T12:29:19.402Z,17.95
2016-05-29T12:30:19.452Z,18.03
2016-05-29T12:31:19.471Z,18.05
2016-05-29T12:32:19.504Z,18.18
2016-05-29T12:33:19.381Z,18.15
2016-05-29T12:34:19.587Z,18.28
2016-05-29T12:35:19.607Z,18.25
2016-05-29T12:36:19.468Z,18.11
2016-05-29T12:37:19.690Z,18.15
2016-05-29T12:38:19.723Z,18.1
2016-05-29T12:39:19.773Z,18.16
2016-05-29T12:40:19.806Z,18.15
2016-05-29T12:41:19.857Z,18.18
2016-05-29T12:42:19.875Z,18.26
2016-05-29T12:43:21.549Z,18.13
2016-05-29T12:44:19.942Z,18.13
2016-05-29T12:45:19.836Z,18.18
2016-05-29T12:46:20.042Z,18.18
2016-05-29T12:47:20.060Z,18.08
2016-05-29T12:48:20.094Z,18.1
2016-05-29T12:49:20.144Z,18.11
2016-05-29T12:50:20.006Z,18.07
2016-05-29T12:51:20.352Z,18.08
2016-05-29T12:52:20.261Z,18.05
2016-05-29T12:53:20.279Z,18
2016-05-29T12:54:20.314Z,17.9
2016-05-29T12:55:20.379Z,17.95
2016-05-29T12:56:20.397Z,17.95
2016-05-29T12:57:20.446Z,17.87